Latest Weather Observations for Millendon (Swan Valley)

IDW60801

Issued at 7:03 pm WST Wednesday 14 November 2018 (issued every 10 minutes, with the page automatically refreshed every 10 minutes)

About weather observations | Map of weather stations | Latest weather observations for WA | Other Formats
Station Details ID: 009281 Name: MILLENDON (SWAN VALLEY) Lat: -31.81 Lon: 116.02 Height: 16.0 m
Data from the previous 72 hours. | See also: Recent months at Millendon (Swan Valley)
Date/Time
WST
Temp
°C
App
Temp
°C
Dew
Point
°C
Rel
Hum
%
Delta-T
°C
Wind Press
QNH
hPa
Press
MSL
hPa
Rain since
9am
mm
Dir  Spd
km/h
Gust
km/h
Spd
kts
Gust
kts
14/07:00pm 24.2 24.5 15.1 56 5.4 SSW 7 11 4 6 - - 0.0
14/06:30pm 25.4 25.7 15.1 53 6.2 SW 7 13 4 7 - - 0.0
14/06:00pm 26.4 25.9 14.8 49 7.0 SW 11 17 6 9 - - 0.0
14/05:30pm 27.4 26.1 14.8 46 7.6 SW 15 22 8 12 - - 0.0
14/05:00pm 29.2 27.5 14.6 41 8.8 SW 17 26 9 14 - - 0.0
14/04:30pm 30.4 29.4 14.5 38 9.7 SSW 13 24 7 13 - - 0.0
14/04:00pm 31.7 30.6 13.0 32 11.2 SSW 11 17 6 9 - - 0.0
14/03:30pm 31.7 31.2 12.0 30 11.6 SSW 6 15 3 8 - - 0.0
14/03:00pm 31.7 30.6 12.0 30 11.6 SW 9 17 5 9 - - 0.0
14/02:30pm 31.4 30.8 12.2 30 11.3 SSW 7 13 4 7 - - 0.0
14/02:00pm 30.4 30.4 12.3 33 10.6 SE 4 9 2 5 - - 0.0
14/01:30pm 30.4 29.9 11.9 32 10.8 WSW 6 11 3 6 - - 0.0
14/01:00pm 29.8 29.6 13.1 36 9.9 SE 6 11 3 6 - - 0.0
14/12:30pm 28.7 28.8 12.6 37 9.4 ENE 4 13 2 7 - - 0.0
14/12:00pm 27.4 27.0 13.0 41 8.4 SE 7 13 4 7 - - 0.0
14/11:30am 26.4 26.0 12.5 42 8.1 S 6 13 3 7 - - 0.0
14/11:00am 26.1 25.7 12.9 44 7.7 SSE 7 15 4 8 - - 0.0
14/10:30am 25.0 24.6 12.9 47 7.0 ESE 7 15 4 8 - - 0.0
14/10:00am 24.3 23.4 12.6 48 6.7 ENE 9 19 5 10 - - 0.0
14/09:30am 22.9 21.4 11.9 50 6.2 E 11 22 6 12 - - 0.0
14/09:00am 21.8 20.5 12.6 56 5.2 ESE 11 22 6 12 - - 0.0
14/08:30am 21.1 20.1 12.3 57 5.0 E 9 24 5 13 - - 0.0
14/08:00am 19.6 18.5 11.9 61 4.3 ESE 9 22 5 12 - - 0.0
14/07:30am 18.4 17.2 11.5 64 3.8 ESE 9 17 5 9 - - 0.0
14/07:00am 17.2 16.3 11.5 69 3.1 SE 7 20 4 11 - - 0.0
14/06:30am 16.4 15.5 11.3 72 2.7 SE 7 15 4 8 - - 0.0
14/06:00am 15.6 13.8 10.8 73 2.5 ESE 11 20 6 11 - - 0.0
14/05:30am 15.8 14.8 11.0 73 2.6 ESE 7 15 4 8 - - 0.0
14/05:00am 16.1 14.7 10.8 71 2.8 ESE 9 20 5 11 - - 0.0
14/04:30am 16.6 15.8 10.9 69 3.1 ESE 6 13 3 7 - - 0.0
14/04:00am 16.9 16.1 11.2 69 3.1 SE 6 13 3 7 - - 0.0
14/03:30am 16.9 16.7 11.8 72 2.8 ESE 4 9 2 5 - - 0.0
14/03:00am 14.9 15.1 13.1 89 1.0 SE 4 9 2 5 - - 0.0
14/02:30am 12.8 13.0 12.0 95 0.4 W 2 6 1 3 - - 0.0
14/02:00am 13.1 13.8 12.3 95 0.4 CALM 0 0 0 0 - - 0.0
14/01:30am 13.5 13.9 12.6 94 0.5 S 2 4 1 2 - - 0.0
14/01:00am 13.9 14.8 12.8 93 0.6 CALM 0 0 0 0 - - 0.0
14/12:30am 14.5 15.5 13.2 92 0.7 CALM 0 0 0 0 - - 0.0
14/12:00am 15.1 16.2 13.5 90 0.9 CALM 0 0 0 0 - - 0.0
 
Date/Time
WST
Temp
°C
App
Temp
°C
Dew
Point
°C
Rel
Hum
%
Delta-T
°C
Wind Press
QNH
hPa
Press
MSL
hPa
Rain since
9am
mm
Dir  Spd
km/h
Gust
km/h
Spd
kts
Gust
kts
13/11:30pm 15.9 16.7 13.7 87 1.2 SSE 2 4 1 2 - - 0.0
13/11:00pm 16.9 17.1 14.2 84 1.5 S 6 9 3 5 - - 0.0
13/10:30pm 17.4 17.6 14.1 81 1.9 SSW 6 9 3 5 - - 0.0
13/10:00pm 18.0 17.7 14.5 80 2.0 SSW 9 17 5 9 - - 0.0
13/09:30pm 18.1 18.3 14.6 80 2.0 SSW 7 13 4 7 - - 0.0
13/09:00pm 18.3 18.5 14.6 79 2.1 S 7 13 4 7 - - 0.0
13/08:30pm 18.8 19.1 14.9 78 2.3 S 7 13 4 7 - - 0.0
13/08:00pm 19.2 19.5 15.1 77 2.4 SSW 7 13 4 7 - - 0.0
13/07:30pm 19.7 19.8 15.4 76 2.5 SSW 9 17 5 9 - - 0.0
13/07:00pm 20.5 20.5 15.1 71 3.2 SW 9 15 5 8 - - 0.0
13/06:30pm 21.4 20.9 14.8 66 3.9 SW 11 17 6 9 - - 0.0
13/06:00pm 22.5 21.6 14.9 62 4.5 SW 13 19 7 10 - - 0.0
13/05:30pm 23.2 21.7 14.2 57 5.3 SW 15 20 8 11 - - 0.0
13/05:00pm 23.9 22.3 14.0 54 5.8 SW 15 24 8 13 - - 0.0
13/04:30pm 24.5 22.4 13.7 51 6.3 SW 17 26 9 14 - - 0.0
13/04:00pm 25.1 23.1 13.9 49 6.6 SW 17 28 9 15 - - 0.0
13/03:30pm 25.1 24.2 13.6 49 6.7 SW 11 22 6 12 - - 0.0
13/03:00pm 26.1 24.6 14.2 48 7.1 SW 15 24 8 13 - - 0.0
13/02:30pm 26.3 24.2 14.7 48 7.0 WSW 19 30 10 16 - - 0.0
13/02:00pm 27.4 26.6 15.1 47 7.5 WSW 13 28 7 15 - - 0.0
13/01:30pm 26.6 26.0 14.7 48 7.2 SSW 11 24 6 13 - - 0.0
13/01:00pm 25.5 25.1 14.0 49 6.8 SW 9 20 5 11 - - 0.0
13/12:30pm 26.1 26.1 15.2 51 6.6 SW 9 17 5 9 - - 0.0
13/12:00pm 25.4 25.9 15.1 53 6.2 SW 6 13 3 7 - - 0.0
13/11:30am 23.2 23.3 14.5 58 5.1 WSW 7 17 4 9 - - 0.0
13/11:00am 21.7 22.0 14.4 63 4.3 WNW 6 11 3 6 - - 0.0
13/10:30am 20.9 21.1 14.3 66 3.8 WNW 6 11 3 6 - - 0.0
13/10:00am 19.8 20.4 14.2 70 3.2 W 4 13 2 7 - - 0.0
13/09:30am 18.0 18.4 13.7 76 2.4 SSW 4 9 2 5 - - 0.0
13/09:00am 17.3 17.3 13.6 79 2.1 SSE 6 9 3 5 - - 0.0
13/08:30am 16.9 16.8 13.4 80 2.0 SSE 6 9 3 5 - - 0.0
13/08:00am 16.6 16.9 13.5 82 1.7 SSE 4 7 2 4 - - 0.0
13/07:30am 16.4 17.1 13.5 83 1.6 SE 2 6 1 3 - - 0.0
13/07:00am 16.3 16.7 13.6 84 1.5 SSE 4 7 2 4 - - 0.0
13/06:30am 16.1 16.5 13.8 86 1.3 SSE 4 7 2 4 - - 0.0
13/06:00am 16.2 16.3 13.9 86 1.3 S 6 9 3 5 - - 0.0
13/05:30am 16.2 16.7 13.9 86 1.3 SSW 4 7 2 4 - - 0.0
13/05:00am 16.2 16.7 13.9 86 1.3 SSW 4 9 2 5 - - 0.0
13/04:30am 16.1 16.0 13.8 86 1.3 S 7 11 4 6 - - 0.0
13/04:00am 16.2 16.0 13.5 84 1.5 S 7 13 4 7 - - 0.0
13/03:30am 16.3 17.1 13.6 84 1.5 S 2 4 1 2 - - 0.0
13/03:00am 16.4 16.4 13.5 83 1.6 S 6 13 3 7 - - 0.0
13/02:30am 16.2 16.1 13.3 83 1.6 S 6 9 3 5 - - 0.0
13/02:00am 16.2 15.9 13.3 83 1.6 S 7 13 4 7 - - 0.0
13/01:30am 16.4 15.7 13.3 82 1.7 SSW 9 13 5 7 - - 0.0
13/01:00am 16.5 16.5 13.6 83 1.6 SSW 6 13 3 7 - - 0.0
13/12:30am 16.3 15.7 13.4 83 1.6 S 9 19 5 10 - - 0.0
13/12:00am 16.9 16.8 13.8 82 1.8 S 7 15 4 8 - - 0.0
 
Date/Time
WST
Temp
°C
App
Temp
°C
Dew
Point
°C
Rel
Hum
%
Delta-T
°C
Wind Press
QNH
hPa
Press
MSL
hPa
Rain since
9am
mm
Dir  Spd
km/h
Gust
km/h
Spd
kts
Gust
kts
12/11:30pm 17.0 16.6 14.1 83 1.7 SSW 9 15 5 8 - - 0.0
12/11:00pm 17.2 16.0 14.1 82 1.8 SSW 13 22 7 12 - - 0.0
12/10:30pm 17.2 16.5 14.3 83 1.7 SSW 11 20 6 11 - - 0.0
12/10:00pm 17.3 16.2 14.4 83 1.7 SSW 13 22 7 12 - - 0.0
12/09:30pm 17.3 16.9 14.2 82 1.8 SSW 9 19 5 10 - - 0.0
12/09:00pm 17.6 17.6 14.3 81 1.9 SSW 7 17 4 9 - - 0.0
12/08:30pm 17.8 17.8 14.3 80 2.0 SSW 7 13 4 7 - - 0.0
12/08:00pm 17.7 18.0 14.4 81 1.9 SSW 6 11 3 6 - - 0.0
12/07:30pm 18.0 17.7 14.3 79 2.1 SW 9 15 5 8 - - 0.0
12/07:00pm 18.6 17.9 14.3 76 2.5 SW 11 17 6 9 - - 0.0
12/06:30pm 19.4 18.7 14.2 72 3.0 SW 11 19 6 10 - - 0.0
12/06:00pm 20.4 19.8 14.5 69 3.4 SW 11 20 6 11 - - 0.0
12/05:30pm 21.2 20.1 14.4 65 4.0 SW 13 22 7 12 - - 0.0
12/05:00pm 22.1 20.5 14.0 60 4.7 SW 15 24 8 13 - - 0.0
12/04:30pm 21.7 20.0 13.6 60 4.7 SSW 15 24 8 13 - - 0.0
12/04:00pm 22.1 20.7 13.5 58 5.0 SSW 13 20 7 11 - - 0.0
12/03:30pm 23.1 21.4 13.6 55 5.5 SW 15 24 8 13 - - 0.0
12/03:00pm 22.3 20.8 13.1 56 5.3 SSW 13 20 7 11 - - 0.0
12/02:30pm 22.5 20.6 13.0 55 5.5 SW 15 26 8 14 - - 0.0
12/02:00pm 23.2 21.7 13.1 53 5.8 SSW 13 24 7 13 - - 0.0
12/01:30pm 23.8 21.9 13.1 51 6.2 SW 15 26 8 14 - - 0.0
12/01:00pm 22.8 21.0 12.1 51 6.1 SSW 13 22 7 12 - - 0.0
12/12:30pm 23.8 22.7 11.8 47 6.8 S 9 19 5 10 - - 0.0
12/12:00pm 24.5 23.4 12.1 46 7.1 SW 9 22 5 12 - - 0.0
12/11:30am 22.7 21.8 11.4 49 6.3 S 7 17 4 9 - - 0.0
12/11:00am 22.1 21.3 11.2 50 6.0 S 6 13 3 7 - - 0.0
12/10:30am 22.4 21.2 11.5 50 6.1 SW 9 19 5 10 - - 0.0
12/10:00am 21.9 21.3 11.6 52 5.8 WSW 6 9 3 5 - - 0.0
12/09:30am 20.4 19.4 11.1 55 5.1 SSW 7 15 4 8 - - 0.0
12/09:00am 19.9 19.9 11.1 57 4.8 NNW 2 6 1 3 - - 0.0
12/08:30am 17.9 17.7 10.3 61 4.1 S 2 6 1 3 - - 0.0
12/08:00am 16.9 16.7 10.3 65 3.5 W 2 4 1 2 - - 0.0
12/07:30am 15.9 15.3 10.4 70 2.9 S 4 11 2 6 - - 0.0
12/07:00am 14.7 13.8 10.7 77 2.1 SSW 6 6 3 3 - - 0.0
12/06:30am 12.0 11.9 10.7 92 0.7 S 2 4 1 2 - - 0.0
12/06:00am 9.8 9.6 9.0 95 0.4 CALM 0 0 0 0 - - 0.0
12/05:30am 9.6 9.3 8.7 94 0.4 CALM 0 2 0 1 - - 0.0
12/05:00am 9.7 9.4 8.5 92 0.6 CALM 0 0 0 0 - - 0.0
12/04:30am 10.2 9.9 8.8 91 0.7 CALM 0 0 0 0 - - 0.0
12/04:00am 11.1 10.9 9.2 88 0.9 CALM 0 0 0 0 - - 0.0
12/03:30am 11.8 11.0 9.5 86 1.2 S 4 6 2 3 - - 0.0
12/03:00am 12.0 11.6 9.6 85 1.2 S 2 4 1 2 - - 0.0
12/02:30am 12.6 12.2 9.6 82 1.5 S 2 7 1 4 - - 0.0
12/02:00am 13.1 12.3 9.7 80 1.7 S 4 7 2 4 - - 0.0
12/01:30am 13.9 12.6 9.9 77 2.1 SSW 7 13 4 7 - - 0.0
12/01:00am 14.3 12.7 10.1 76 2.2 SSW 9 19 5 10 - - 0.0
12/12:30am 14.9 13.1 10.7 76 2.2 SSW 11 19 6 10 - - 0.0
12/12:00am 15.6 13.5 11.2 75 2.4 SSW 13 22 7 12 - - 0.0
 
Date/Time
WST
Temp
°C
App
Temp
°C
Dew
Point
°C
Rel
Hum
%
Delta-T
°C
Wind Press
QNH
hPa
Press
MSL
hPa
Rain since
9am
mm
Dir  Spd
km/h
Gust
km/h
Spd
kts
Gust
kts
11/11:30pm 15.5 15.1 12.4 82 1.7 SSW 6 13 3 7 - - 0.0
11/11:00pm 15.8 15.3 12.5 81 1.8 SSW 7 15 4 8 - - 0.0
11/10:30pm 15.7 15.3 12.5 81 1.8 SSW 6 13 3 7 - - 0.0
11/10:00pm 16.0 15.5 12.6 80 1.9 SSW 7 13 4 7 - - 0.0
11/09:30pm 16.1 15.6 12.5 79 2.0 SSW 7 13 4 7 - - 0.0
11/09:00pm 16.3 15.3 12.3 77 2.2 SSW 9 17 5 9 - - 0.0
11/08:30pm 16.4 15.3 12.0 75 2.4 SSW 9 19 5 10 - - 0.0
11/08:00pm 16.8 14.9 11.9 73 2.7 SSW 13 24 7 13 - - 0.0
11/07:30pm 17.1 15.6 11.8 71 2.9 SSW 11 19 6 10 - - 0.0

Other Formats:

Comma delimited format used in spreadsheet applications
http://www.bom.gov.au/fwo/IDW60801/IDW60801.94795.axf

JavaScript Object Notation format (JSON) in row-major order
http://www.bom.gov.au/fwo/IDW60801/IDW60801.94795.json